Time;durP1;ratioP1;P1;durP2;ratioP2;P2;SDS_P1;SDS_P2;PMS_P1;PMS_P2;Temp;Humidity;BMP_temperature;BMP_pressure;BME280_temperature;BME280_humidity;BME280_pressure;Samples;Min_cycle;Max_cycle;Signal;HPM_P1;HPM_P2
2024/02/26 00:01:30;;;;;;;;;;;;;;;;;;5140455;27;19907;-29
2024/02/26 00:03:59;;;;;;;;;;;;;;;;;;5140236;27;19959;-32
2024/02/26 00:06:25;;;;;;;;;;;;;;;;;;5140446;27;19908;-31
2024/02/26 00:08:51;;;;;;;;;;;;;;;;;;5140555;27;19908;-30
2024/02/26 00:11:17;;;;;;;;;;;;;;;;;;5140193;27;20002;-30
2024/02/26 00:13:43;;;;;;;;;;;;;;;;;;5140543;27;20243;-30
2024/02/26 00:16:09;;;;;;;;;;;;;;;;;;5139948;27;20053;-30
2024/02/26 00:18:35;;;;;;;;;;;;;;;;;;5140292;27;19914;-30
2024/02/26 00:21:00;;;;;;;;;;;;;;;;;;5140189;27;20003;-33
2024/02/26 00:23:27;;;;;;;;;;;;;;;;;;5140319;27;19915;-31
2024/02/26 00:25:53;;;;;;;;;;;;;;;;;;5139826;27;19907;-29
2024/02/26 00:28:24;;;;;;;;;;;;;;;;;;5140343;27;20358;-29
2024/02/26 00:30:55;;;;;;;;;;;;;;;;;;5139969;27;19914;-29
2024/02/26 00:33:21;;;;;;;;;;;;;;;;;;5139842;27;19918;-31
2024/02/26 00:35:47;;;;;;;;;;;;;;;;;;5140174;27;19908;-32
2024/02/26 00:38:13;;;;;;;;;;;;;;;;;;5139912;27;19919;-30
2024/02/26 00:40:40;;;;;;;;;;;;;;;;;;5121206;27;20398;-30
2024/02/26 00:43:06;;;;;;;;;;;;;;;;;;5139406;27;20007;-30
2024/02/26 00:45:32;;;;;;;;;;;;;;;;;;5139568;27;19915;-30
2024/02/26 00:47:58;;;;;;;;;;;;;;;;;;5139837;27;20396;-30
2024/02/26 00:50:24;;;;;;;;;;;;;;;;;;5139451;27;19904;-30
2024/02/26 00:52:50;;;;;;;;;;;;;;;;;;5139596;27;20002;-30
2024/02/26 00:55:16;;;;;;;;;;;;;;;;;;5139530;27;19939;-29
2024/02/26 00:57:42;;;;;;;;;;;;;;;;;;5139557;27;19918;-30
2024/02/26 01:00:11;;;;;;;;;;;;;;;;;;5139606;27;19927;-29
2024/02/26 01:02:38;;;;;;;;;;;;;;;;;;5139081;27;20032;-31
2024/02/26 01:05:04;;;;;;;;;;;;;;;;;;5139051;27;19911;-30
2024/02/26 01:07:35;;;;;;;;;;;;;;;;;;5139642;27;20052;-30
2024/02/26 01:10:01;;;;;;;;;;;;;;;;;;5138910;27;19907;-30
2024/02/26 01:12:27;;;;;;;;;;;;;;;;;;5139132;27;20338;-30
2024/02/26 01:14:53;;;;;;;;;;;;;;;;;;5139321;27;19946;-29
2024/02/26 01:17:19;;;;;;;;;;;;;;;;;;5139263;27;19908;-30
2024/02/26 01:19:45;;;;;;;;;;;;;;;;;;5139557;27;19946;-30
2024/02/26 01:22:11;;;;;;;;;;;;;;;;;;5139364;27;19908;-32
2024/02/26 01:24:37;;;;;;;;;;;;;;;;;;5139177;28;19947;-31
2024/02/26 01:27:03;;;;;;;;;;;;;;;;;;5138710;27;19929;-31
2024/02/26 01:29:29;;;;;;;;;;;;;;;;;;5139374;28;19915;-31
2024/02/26 01:31:55;;;;;;;;;;;;;;;;;;5139036;28;20060;-30
2024/02/26 01:34:20;;;;;;;;;;;;;;;;;;5138874;28;19914;-33
2024/02/26 01:36:47;;;;;;;;;;;;;;;;;;5139035;28;19999;-29
2024/02/26 01:39:13;;;;;;;;;;;;;;;;;;5139080;28;19956;-30
2024/02/26 01:41:39;;;;;;;;;;;;;;;;;;5139043;28;19907;-29
2024/02/26 01:44:05;;;;;;;;;;;;;;;;;;5138913;28;19922;-29
2024/02/26 01:46:30;;;;;;;;;;;;;;;;;;5139243;28;19914;-29
2024/02/26 01:48:56;;;;;;;;;;;;;;;;;;5138981;28;19952;-29
2024/02/26 01:51:22;;;;;;;;;;;;;;;;;;5139248;28;20277;-35
2024/02/26 01:53:48;;;;;;;;;;;;;;;;;;5138749;28;21161;-30
2024/02/26 01:56:14;;;;;;;;;;;;;;;;;;5138674;28;19915;-33
2024/02/26 01:58:40;;;;;;;;;;;;;;;;;;5138855;28;19995;-29
2024/02/26 02:01:06;;;;;;;;;;;;;;;;;;5139113;28;20373;-31
2024/02/26 02:03:32;;;;;;;;;;;;;;;;;;5138439;28;20011;-32
2024/02/26 02:05:58;;;;;;;;;;;;;;;;;;5138996;28;19907;-30
2024/02/26 02:08:24;;;;;;;;;;;;;;;;;;5138749;28;19907;-33
2024/02/26 02:10:50;;;;;;;;;;;;;;;;;;5138751;28;20365;-30
2024/02/26 02:13:16;;;;;;;;;;;;;;;;;;5138732;28;19907;-31
2024/02/26 02:15:42;;;;;;;;;;;;;;;;;;5119931;28;19930;-31
2024/02/26 02:18:08;;;;;;;;;;;;;;;;;;5138991;28;19908;-31
2024/02/26 02:20:34;;;;;;;;;;;;;;;;;;5138698;28;19907;-34
2024/02/26 02:23:00;;;;;;;;;;;;;;;;;;5138420;28;19930;-31
2024/02/26 02:25:26;;;;;;;;;;;;;;;;;;5138739;28;20292;-32
2024/02/26 02:27:52;;;;;;;;;;;;;;;;;;5138354;28;20401;-29
2024/02/26 02:30:18;;;;;;;;;;;;;;;;;;5138383;28;19904;-30
2024/02/26 02:32:44;;;;;;;;;;;;;;;;;;5138777;28;19971;-30
2024/02/26 02:35:10;;;;;;;;;;;;;;;;;;5138501;28;19910;-32
2024/02/26 02:37:37;;;;;;;;;;;;;;;;;;5138414;28;19995;-29
2024/02/26 02:40:03;;;;;;;;;;;;;;;;;;5121573;27;19910;-32
2024/02/26 02:42:28;;;;;;;;;;;;;;;;;;5142271;27;19908;-29
2024/02/26 02:44:54;;;;;;;;;;;;;;;;;;5141988;27;19915;-31
2024/02/26 02:47:20;;;;;;;;;;;;;;;;;;5141922;27;19907;-31
2024/02/26 02:49:46;;;;;;;;;;;;;;;;;;5142180;27;19914;-31
2024/02/26 02:52:12;;;;;;;;;;;;;;;;;;5141781;27;19908;-30
2024/02/26 02:54:41;;;;;;;;;;;;;;;;;;5141483;27;19930;-30
2024/02/26 02:57:07;;;;;;;;;;;;;;;;;;5141547;27;19911;-30
2024/02/26 02:59:33;;;;;;;;;;;;;;;;;;5141849;27;20052;-30
2024/02/26 03:01:59;;;;;;;;;;;;;;;;;;5141627;27;19918;-31
2024/02/26 03:04:25;;;;;;;;;;;;;;;;;;5141251;27;20044;-30
2024/02/26 03:06:51;;;;;;;;;;;;;;;;;;5141747;27;19914;-30
2024/02/26 03:09:17;;;;;;;;;;;;;;;;;;5141494;27;19907;-32
2024/02/26 03:11:43;;;;;;;;;;;;;;;;;;5141824;27;19908;-30
2024/02/26 03:14:09;;;;;;;;;;;;;;;;;;5141152;27;19907;-30
2024/02/26 03:16:35;;;;;;;;;;;;;;;;;;5141396;27;20301;-32
2024/02/26 03:19:02;;;;;;;;;;;;;;;;;;5141435;27;20006;-31
2024/02/26 03:21:28;;;;;;;;;;;;;;;;;;5141271;27;19908;-30
2024/02/26 03:23:54;;;;;;;;;;;;;;;;;;5141442;27;19919;-30
2024/02/26 03:26:21;;;;;;;;;;;;;;;;;;5141099;27;19908;-30
2024/02/26 03:28:47;;;;;;;;;;;;;;;;;;5140995;27;19907;-30
2024/02/26 03:31:13;;;;;;;;;;;;;;;;;;5141247;27;19994;-30
2024/02/26 03:33:39;;;;;;;;;;;;;;;;;;5141261;27;20310;-30
2024/02/26 03:36:05;;;;;;;;;;;;;;;;;;5141070;27;19994;-30
2024/02/26 03:38:31;;;;;;;;;;;;;;;;;;5140704;27;19950;-30
2024/02/26 03:40:57;;;;;;;;;;;;;;;;;;5140871;27;19907;-30
2024/02/26 03:43:23;;;;;;;;;;;;;;;;;;5140873;27;19916;-32
2024/02/26 03:45:49;;;;;;;;;;;;;;;;;;5141042;27;19907;-30
2024/02/26 03:48:15;;;;;;;;;;;;;;;;;;5140666;27;19914;-30
2024/02/26 03:50:41;;;;;;;;;;;;;;;;;;5140418;27;20052;-29
2024/02/26 03:53:08;;;;;;;;;;;;;;;;;;5141076;27;19907;-30
2024/02/26 03:55:34;;;;;;;;;;;;;;;;;;5140539;27;19908;-30
2024/02/26 03:58:00;;;;;;;;;;;;;;;;;;5140503;27;19914;-30
2024/02/26 04:00:28;;;;;;;;;;;;;;;;;;5140994;27;19960;-30
2024/02/26 04:02:55;;;;;;;;;;;;;;;;;;5139973;27;19948;-29
2024/02/26 04:05:21;;;;;;;;;;;;;;;;;;5140538;27;20425;-30
2024/02/26 04:07:47;;;;;;;;;;;;;;;;;;5140394;27;19957;-29
2024/02/26 04:10:13;;;;;;;;;;;;;;;;;;5140674;27;19911;-31
2024/02/26 04:12:39;;;;;;;;;;;;;;;;;;5140406;27;19942;-31
2024/02/26 04:15:05;;;;;;;;;;;;;;;;;;5140318;27;19953;-30
2024/02/26 04:17:31;;;;;;;;;;;;;;;;;;5140606;27;19907;-30
2024/02/26 04:19:57;;;;;;;;;;;;;;;;;;5140035;27;19903;-31
2024/02/26 04:22:23;;;;;;;;;;;;;;;;;;5140040;27;19911;-30
2024/02/26 04:24:49;;;;;;;;;;;;;;;;;;5139937;27;20273;-29
2024/02/26 04:27:15;;;;;;;;;;;;;;;;;;5140123;27;19950;-31
2024/02/26 04:29:41;;;;;;;;;;;;;;;;;;5121280;27;19915;-30
2024/02/26 04:32:07;;;;;;;;;;;;;;;;;;5140284;27;19946;-30
2024/02/26 04:34:33;;;;;;;;;;;;;;;;;;5140054;27;19907;-30
2024/02/26 04:36:59;;;;;;;;;;;;;;;;;;5139732;27;19908;-30
2024/02/26 04:39:25;;;;;;;;;;;;;;;;;;5139703;27;20354;-30
2024/02/26 04:41:51;;;;;;;;;;;;;;;;;;5139551;27;20611;-29
2024/02/26 04:44:17;;;;;;;;;;;;;;;;;;5139970;27;20247;-30
2024/02/26 04:46:43;;;;;;;;;;;;;;;;;;5139546;27;19907;-30
2024/02/26 04:49:09;;;;;;;;;;;;;;;;;;5139791;27;19914;-31
2024/02/26 04:51:35;;;;;;;;;;;;;;;;;;5139417;27;19908;-33
2024/02/26 04:54:01;;;;;;;;;;;;;;;;;;5139612;27;19915;-31
2024/02/26 04:56:27;;;;;;;;;;;;;;;;;;5139402;27;19914;-31
2024/02/26 04:58:53;;;;;;;;;;;;;;;;;;5138948;27;19972;-30
2024/02/26 05:01:19;;;;;;;;;;;;;;;;;;5139294;27;20442;-32
2024/02/26 05:03:45;;;;;;;;;;;;;;;;;;5138543;27;19926;-30
2024/02/26 05:06:11;;;;;;;;;;;;;;;;;;5139427;27;19937;-30
2024/02/26 05:08:38;;;;;;;;;;;;;;;;;;5139491;27;19956;-29
2024/02/26 05:11:04;;;;;;;;;;;;;;;;;;5139087;27;19960;-30
2024/02/26 05:13:30;;;;;;;;;;;;;;;;;;5139259;27;19912;-29
2024/02/26 05:15:56;;;;;;;;;;;;;;;;;;5139223;27;20335;-32
2024/02/26 05:18:22;;;;;;;;;;;;;;;;;;5139524;27;19911;-29
2024/02/26 05:20:48;;;;;;;;;;;;;;;;;;5139246;27;19908;-31
2024/02/26 05:23:14;;;;;;;;;;;;;;;;;;5139400;27;20372;-31
2024/02/26 05:25:41;;;;;;;;;;;;;;;;;;5139301;27;19912;-30
2024/02/26 05:28:07;;;;;;;;;;;;;;;;;;5139233;28;19929;-31
2024/02/26 05:30:33;;;;;;;;;;;;;;;;;;5138920;28;20354;-30
2024/02/26 05:32:59;;;;;;;;;;;;;;;;;;5138929;28;19915;-30
2024/02/26 05:35:25;;;;;;;;;;;;;;;;;;5138954;28;19907;-29
2024/02/26 05:37:51;;;;;;;;;;;;;;;;;;5138877;28;19908;-32
2024/02/26 05:40:17;;;;;;;;;;;;;;;;;;5138614;28;20006;-30
2024/02/26 05:42:46;;;;;;;;;;;;;;;;;;5138999;28;19915;-31
2024/02/26 05:45:12;;;;;;;;;;;;;;;;;;5139015;28;19911;-32
2024/02/26 05:47:44;;;;;;;;;;;;;;;;;;5139021;28;19907;-31
2024/02/26 05:50:10;;;;;;;;;;;;;;;;;;5138839;28;19907;-30
2024/02/26 05:52:37;;;;;;;;;;;;;;;;;;5138907;28;20349;-29
2024/02/26 05:55:03;;;;;;;;;;;;;;;;;;5138500;28;19931;-30
2024/02/26 05:57:29;;;;;;;;;;;;;;;;;;5138957;28;20269;-29
2024/02/26 05:59:55;;;;;;;;;;;;;;;;;;5138660;28;19915;-30
2024/02/26 06:02:21;;;;;;;;;;;;;;;;;;5138627;28;19952;-30
2024/02/26 06:04:47;;;;;;;;;;;;;;;;;;5138423;28;20018;-30
2024/02/26 06:07:13;;;;;;;;;;;;;;;;;;5138428;28;19908;-30
2024/02/26 06:09:39;;;;;;;;;;;;;;;;;;5138868;28;20003;-31
2024/02/26 06:12:05;;;;;;;;;;;;;;;;;;5138660;28;19978;-30
2024/02/26 06:14:31;;;;;;;;;;;;;;;;;;5141257;27;20327;-30
2024/02/26 06:16:57;;;;;;;;;;;;;;;;;;5142840;27;19908;-30
2024/02/26 06:19:23;;;;;;;;;;;;;;;;;;5136392;27;20011;-30
2024/02/26 06:21:50;;;;;;;;;;;;;;;;;;5121937;28;20279;-31
2024/02/26 06:24:16;;;;;;;;;;;;;;;;;;5121851;28;19912;-30
2024/02/26 06:26:42;;;;;;;;;;;;;;;;;;5121756;28;19931;-30
2024/02/26 06:29:08;;;;;;;;;;;;;;;;;;5122056;28;19908;-29
2024/02/26 06:31:34;;;;;;;;;;;;;;;;;;5121822;28;19943;-30
2024/02/26 06:34:00;;;;;;;;;;;;;;;;;;5121716;28;19912;-30
2024/02/26 06:36:25;;;;;;;;;;;;;;;;;;5122009;28;19929;-31
2024/02/26 06:38:53;;;;;;;;;;;;;;;;;;5121516;28;20010;-29
2024/02/26 06:41:19;;;;;;;;;;;;;;;;;;5121224;28;20359;-30
2024/02/26 06:43:45;;;;;;;;;;;;;;;;;;5121452;28;19930;-29
2024/02/26 06:46:11;;;;;;;;;;;;;;;;;;5121580;28;19919;-29
2024/02/26 06:48:37;;;;;;;;;;;;;;;;;;5121268;28;20033;-30
2024/02/26 06:51:04;;;;;;;;;;;;;;;;;;5102803;28;20026;-30
2024/02/26 06:53:29;;;;;;;;;;;;;;;;;;5121986;28;19914;-31
2024/02/26 06:55:55;;;;;;;;;;;;;;;;;;5121332;28;19907;-31
2024/02/26 06:58:21;;;;;;;;;;;;;;;;;;5121539;28;19916;-32
2024/02/26 07:00:47;;;;;;;;;;;;;;;;;;5121202;28;19998;-30
2024/02/26 07:03:13;;;;;;;;;;;;;;;;;;5121118;28;19959;-31
2024/02/26 07:05:39;;;;;;;;;;;;;;;;;;5120876;28;19916;-29
2024/02/26 07:08:05;;;;;;;;;;;;;;;;;;5121357;28;20267;-30
2024/02/26 07:10:31;;;;;;;;;;;;;;;;;;5120811;28;19929;-30
2024/02/26 07:12:57;;;;;;;;;;;;;;;;;;5120997;28;19915;-30
2024/02/26 07:15:23;;;;;;;;;;;;;;;;;;5120928;28;19903;-29
2024/02/26 07:17:49;;;;;;;;;;;;;;;;;;5120499;28;19936;-32
2024/02/26 07:20:18;;;;;;;;;;;;;;;;;;5120791;28;19904;-30
2024/02/26 07:22:44;;;;;;;;;;;;;;;;;;5120329;28;19914;-31
2024/02/26 07:25:13;;;;;;;;;;;;;;;;;;5119408;28;19959;-30
2024/02/26 07:27:39;;;;;;;;;;;;;;;;;;5120317;28;19915;-31
2024/02/26 07:30:04;;;;;;;;;;;;;;;;;;5120167;28;19908;-31
2024/02/26 07:32:30;;;;;;;;;;;;;;;;;;5119953;28;19998;-31
2024/02/26 07:34:56;;;;;;;;;;;;;;;;;;5120029;28;19908;-30
2024/02/26 07:37:23;;;;;;;;;;;;;;;;;;5120263;28;19911;-31
2024/02/26 07:39:49;;;;;;;;;;;;;;;;;;5120245;28;19908;-31
2024/02/26 07:42:14;;;;;;;;;;;;;;;;;;5119954;28;19914;-33
2024/02/26 07:44:42;;;;;;;;;;;;;;;;;;5119975;28;20327;-34
2024/02/26 07:47:08;;;;;;;;;;;;;;;;;;5119754;28;20006;-30
2024/02/26 07:49:34;;;;;;;;;;;;;;;;;;5119840;28;19908;-30
2024/02/26 07:52:00;;;;;;;;;;;;;;;;;;5120194;28;19915;-31
2024/02/26 07:54:26;;;;;;;;;;;;;;;;;;5119885;28;19998;-30
2024/02/26 07:56:52;;;;;;;;;;;;;;;;;;5120131;28;20417;-30
2024/02/26 07:59:18;;;;;;;;;;;;;;;;;;5119592;28;19907;-30
2024/02/26 08:01:45;;;;;;;;;;;;;;;;;;5119881;28;19930;-29
2024/02/26 08:04:11;;;;;;;;;;;;;;;;;;5119053;28;20368;-30
2024/02/26 08:06:59;;;;;;;;;;;;;;;;;;5119752;28;19930;-31
2024/02/26 08:09:24;;;;;;;;;;;;;;;;;;5119664;28;19926;-30
2024/02/26 08:11:50;;;;;;;;;;;;;;;;;;5119811;28;19907;-29
2024/02/26 08:14:16;;;;;;;;;;;;;;;;;;5100875;28;19907;-30
2024/02/26 08:16:42;;;;;;;;;;;;;;;;;;5119204;28;19998;-30
2024/02/26 08:19:10;;;;;;;;;;;;;;;;;;5119472;28;19908;-30
2024/02/26 08:21:36;;;;;;;;;;;;;;;;;;5119360;28;19911;-30
2024/02/26 08:24:02;;;;;;;;;;;;;;;;;;5118839;28;19915;-32
2024/02/26 08:26:28;;;;;;;;;;;;;;;;;;5119104;28;20252;-30
2024/02/26 08:28:55;;;;;;;;;;;;;;;;;;5119366;28;19995;-30
2024/02/26 08:31:23;;;;;;;;;;;;;;;;;;5119148;28;20371;-30
2024/02/26 08:33:49;;;;;;;;;;;;;;;;;;5119475;28;19915;-29
2024/02/26 08:36:15;;;;;;;;;;;;;;;;;;5119115;28;19935;-29
2024/02/26 08:38:41;;;;;;;;;;;;;;;;;;5119375;28;19929;-30
2024/02/26 08:41:07;;;;;;;;;;;;;;;;;;5118808;28;20401;-30
2024/02/26 08:43:33;;;;;;;;;;;;;;;;;;5118933;28;19969;-29
2024/02/26 08:45:59;;;;;;;;;;;;;;;;;;5118701;28;19951;-30
2024/02/26 08:48:25;;;;;;;;;;;;;;;;;;5119164;28;19908;-30
2024/02/26 08:50:51;;;;;;;;;;;;;;;;;;5118649;28;19958;-29
2024/02/26 08:53:17;;;;;;;;;;;;;;;;;;5118835;28;19915;-30
2024/02/26 08:55:43;;;;;;;;;;;;;;;;;;5118278;28;19950;-31
2024/02/26 08:58:09;;;;;;;;;;;;;;;;;;5118442;28;19964;-31
2024/02/26 09:00:35;;;;;;;;;;;;;;;;;;5118899;28;19908;-29
2024/02/26 09:03:01;;;;;;;;;;;;;;;;;;5118407;28;19987;-30
2024/02/26 09:05:27;;;;;;;;;;;;;;;;;;5118327;28;20286;-29
2024/02/26 09:07:55;;;;;;;;;;;;;;;;;;5117453;28;20212;-29
2024/02/26 09:10:21;;;;;;;;;;;;;;;;;;5118659;28;19954;-30
2024/02/26 09:12:47;;;;;;;;;;;;;;;;;;5118779;28;19907;-30
2024/02/26 09:15:13;;;;;;;;;;;;;;;;;;5118147;28;19912;-29
2024/02/26 09:17:39;;;;;;;;;;;;;;;;;;5118459;28;19939;-30
2024/02/26 09:20:06;;;;;;;;;;;;;;;;;;5118369;28;19990;-30
2024/02/26 09:22:32;;;;;;;;;;;;;;;;;;5117918;28;19987;-31
2024/02/26 09:24:58;;;;;;;;;;;;;;;;;;5118523;28;19958;-31
2024/02/26 09:27:23;;;;;;;;;;;;;;;;;;5118065;28;19908;-31
2024/02/26 09:29:50;;;;;;;;;;;;;;;;;;5118086;28;19908;-30
2024/02/26 09:32:19;;;;;;;;;;;;;;;;;;5118365;28;19971;-30
2024/02/26 09:34:45;;;;;;;;;;;;;;;;;;5118021;28;19904;-30
2024/02/26 09:37:12;;;;;;;;;;;;;;;;;;5118360;28;19908;-29
2024/02/26 09:39:38;;;;;;;;;;;;;;;;;;5118155;28;19953;-30
2024/02/26 09:42:04;;;;;;;;;;;;;;;;;;5117746;28;19908;-31
2024/02/26 09:44:30;;;;;;;;;;;;;;;;;;5118246;28;20318;-30
2024/02/26 09:46:56;;;;;;;;;;;;;;;;;;5117946;28;19908;-30
2024/02/26 09:49:22;;;;;;;;;;;;;;;;;;5120705;28;19991;-29
2024/02/26 09:51:48;;;;;;;;;;;;;;;;;;5122115;28;19907;-30
2024/02/26 09:54:14;;;;;;;;;;;;;;;;;;5122053;28;20014;-29
2024/02/26 09:56:40;;;;;;;;;;;;;;;;;;5122466;28;19915;-30
2024/02/26 09:59:06;;;;;;;;;;;;;;;;;;5121893;28;19911;-34
2024/02/26 10:01:34;;;;;;;;;;;;;;;;;;5122360;28;19923;-31
2024/02/26 10:04:00;;;;;;;;;;;;;;;;;;5121551;28;19920;-33
2024/02/26 10:06:27;;;;;;;;;;;;;;;;;;5121713;28;19994;-30
2024/02/26 10:08:53;;;;;;;;;;;;;;;;;;5121776;28;19937;-32
2024/02/26 10:11:19;;;;;;;;;;;;;;;;;;5121917;28;19908;-30
2024/02/26 10:13:45;;;;;;;;;;;;;;;;;;5121421;28;19908;-31
2024/02/26 10:16:11;;;;;;;;;;;;;;;;;;5121887;28;20250;-30
2024/02/26 10:18:37;;;;;;;;;;;;;;;;;;5121419;28;20392;-30
2024/02/26 10:21:03;;;;;;;;;;;;;;;;;;5121765;28;19912;-31
2024/02/26 10:23:28;;;;;;;;;;;;;;;;;;5121579;28;19908;-30
2024/02/26 10:25:57;;;;;;;;;;;;;;;;;;5121736;28;19911;-29
2024/02/26 10:28:23;;;;;;;;;;;;;;;;;;5121591;28;19907;-30
2024/02/26 10:30:49;;;;;;;;;;;;;;;;;;5121555;28;20280;-30
2024/02/26 10:33:15;;;;;;;;;;;;;;;;;;5121461;28;20422;-30
2024/02/26 10:35:41;;;;;;;;;;;;;;;;;;5121644;28;19930;-30
2024/02/26 10:38:07;;;;;;;;;;;;;;;;;;5121772;28;19908;-30
2024/02/26 10:40:33;;;;;;;;;;;;;;;;;;5121650;28;19904;-30
2024/02/26 10:42:59;;;;;;;;;;;;;;;;;;5121524;28;20434;-32
2024/02/26 10:45:25;;;;;;;;;;;;;;;;;;5121139;28;19981;-30
2024/02/26 10:47:51;;;;;;;;;;;;;;;;;;5121478;28;19907;-31
2024/02/26 10:50:18;;;;;;;;;;;;;;;;;;5121149;28;20355;-30
2024/02/26 10:52:44;;;;;;;;;;;;;;;;;;5120961;28;19981;-30
2024/02/26 10:55:10;;;;;;;;;;;;;;;;;;5121099;28;19942;-30
2024/02/26 10:57:37;;;;;;;;;;;;;;;;;;5140373;27;19911;-31
2024/02/26 11:00:04;;;;;;;;;;;;;;;;;;5140108;27;19907;-30
2024/02/26 11:02:30;;;;;;;;;;;;;;;;;;5141654;27;20012;-30
2024/02/26 11:04:57;;;;;;;;;;;;;;;;;;5141706;27;19951;-30
2024/02/26 11:07:23;;;;;;;;;;;;;;;;;;5141118;27;19908;-31
2024/02/26 11:09:52;;;;;;;;;;;;;;;;;;5141464;27;19914;-30
2024/02/26 11:12:18;;;;;;;;;;;;;;;;;;5141075;27;20053;-29
2024/02/26 11:14:44;;;;;;;;;;;;;;;;;;5141255;27;19943;-29
2024/02/26 11:17:10;;;;;;;;;;;;;;;;;;5141441;27;21071;-31
2024/02/26 11:19:36;;;;;;;;;;;;;;;;;;5141035;27;20367;-29
2024/02/26 11:22:02;;;;;;;;;;;;;;;;;;5140977;27;19960;-29
2024/02/26 11:24:27;;;;;;;;;;;;;;;;;;5141120;27;19918;-31
2024/02/26 11:26:58;;;;;;;;;;;;;;;;;;5141120;27;20372;-29
2024/02/26 11:29:24;;;;;;;;;;;;;;;;;;5140859;27;19908;-31
2024/02/26 11:31:50;;;;;;;;;;;;;;;;;;5140959;27;19908;-30
2024/02/26 11:34:16;;;;;;;;;;;;;;;;;;5141218;27;19908;-30
2024/02/26 11:36:42;;;;;;;;;;;;;;;;;;5122259;27;20362;-30
2024/02/26 11:39:08;;;;;;;;;;;;;;;;;;5140424;27;19952;-31
2024/02/26 11:41:34;;;;;;;;;;;;;;;;;;5140763;27;19908;-30
2024/02/26 11:44:00;;;;;;;;;;;;;;;;;;5140884;27;19918;-32
2024/02/26 11:46:26;;;;;;;;;;;;;;;;;;5140521;27;19970;-31
2024/02/26 11:48:52;;;;;;;;;;;;;;;;;;5140664;27;20408;-31
2024/02/26 11:51:18;;;;;;;;;;;;;;;;;;5140623;27;20338;-29
2024/02/26 11:53:44;;;;;;;;;;;;;;;;;;5140521;27;19915;-30
2024/02/26 11:56:10;;;;;;;;;;;;;;;;;;5140774;27;19912;-30
2024/02/26 11:58:36;;;;;;;;;;;;;;;;;;5121686;27;19907;-32
2024/02/26 12:01:02;;;;;;;;;;;;;;;;;;5140222;27;19911;-32
2024/02/26 12:03:28;;;;;;;;;;;;;;;;;;5140387;27;19925;-33
2024/02/26 12:05:54;;;;;;;;;;;;;;;;;;5139936;27;19934;-30
2024/02/26 12:08:21;;;;;;;;;;;;;;;;;;5140135;27;20258;-32
2024/02/26 12:10:48;;;;;;;;;;;;;;;;;;5139635;27;19949;-30
2024/02/26 12:13:14;;;;;;;;;;;;;;;;;;5139546;27;20391;-29
2024/02/26 12:15:40;;;;;;;;;;;;;;;;;;5139906;27;19903;-32
2024/02/26 12:18:07;;;;;;;;;;;;;;;;;;5140098;27;19919;-30
2024/02/26 12:20:33;;;;;;;;;;;;;;;;;;5139615;27;19904;-30
2024/02/26 12:22:59;;;;;;;;;;;;;;;;;;5139763;27;19990;-32
2024/02/26 12:25:26;;;;;;;;;;;;;;;;;;5139509;27;20320;-33
2024/02/26 12:27:52;;;;;;;;;;;;;;;;;;5139847;27;20464;-30
2024/02/26 12:30:19;;;;;;;;;;;;;;;;;;5139828;27;19930;-31
2024/02/26 12:32:45;;;;;;;;;;;;;;;;;;5139622;27;19908;-30
2024/02/26 12:35:11;;;;;;;;;;;;;;;;;;5139883;27;20384;-29
2024/02/26 12:37:38;;;;;;;;;;;;;;;;;;5139405;27;20257;-30
2024/02/26 12:40:05;;;;;;;;;;;;;;;;;;5139267;27;19907;-32
2024/02/26 12:42:32;;;;;;;;;;;;;;;;;;5139522;27;19994;-33
2024/02/26 12:44:58;;;;;;;;;;;;;;;;;;5139349;27;19911;-30
2024/02/26 12:47:24;;;;;;;;;;;;;;;;;;5139372;27;19907;-31
2024/02/26 12:49:50;;;;;;;;;;;;;;;;;;5139272;27;19908;-30
2024/02/26 12:52:16;;;;;;;;;;;;;;;;;;5139143;27;19908;-30
2024/02/26 12:54:42;;;;;;;;;;;;;;;;;;5139241;27;20340;-32
2024/02/26 12:57:08;;;;;;;;;;;;;;;;;;5138943;27;19914;-31
2024/02/26 12:59:34;;;;;;;;;;;;;;;;;;5139054;27;20424;-30
2024/02/26 13:02:00;;;;;;;;;;;;;;;;;;5139079;27;19907;-32
2024/02/26 13:04:26;;;;;;;;;;;;;;;;;;5138791;27;19919;-32
2024/02/26 13:06:52;;;;;;;;;;;;;;;;;;5138982;27;19907;-31
2024/02/26 13:09:18;;;;;;;;;;;;;;;;;;5139143;27;19908;-31
2024/02/26 13:11:44;;;;;;;;;;;;;;;;;;5139546;27;19914;-33
2024/02/26 13:14:10;;;;;;;;;;;;;;;;;;5138861;27;20373;-31
2024/02/26 13:16:36;;;;;;;;;;;;;;;;;;5139034;27;19981;-29
2024/02/26 13:19:02;;;;;;;;;;;;;;;;;;5139102;27;20369;-30
2024/02/26 13:21:28;;;;;;;;;;;;;;;;;;5139210;27;19951;-30
2024/02/26 13:23:55;;;;;;;;;;;;;;;;;;5137992;27;19907;-29
2024/02/26 13:26:21;;;;;;;;;;;;;;;;;;5139003;27;19914;-32
2024/02/26 13:28:47;;;;;;;;;;;;;;;;;;5138738;28;20399;-30
2024/02/26 13:31:13;;;;;;;;;;;;;;;;;;5138934;28;19911;-30
2024/02/26 13:33:39;;;;;;;;;;;;;;;;;;5138861;28;19907;-29
2024/02/26 13:36:05;;;;;;;;;;;;;;;;;;5138871;28;20370;-30
2024/02/26 13:38:31;;;;;;;;;;;;;;;;;;5138634;28;19915;-30
2024/02/26 13:40:57;;;;;;;;;;;;;;;;;;5138602;28;19908;-30
2024/02/26 13:43:23;;;;;;;;;;;;;;;;;;5138448;28;20453;-30
2024/02/26 13:45:49;;;;;;;;;;;;;;;;;;5119870;28;19965;-31
2024/02/26 13:48:15;;;;;;;;;;;;;;;;;;5138918;28;19967;-29
2024/02/26 13:50:43;;;;;;;;;;;;;;;;;;5138523;28;20381;-30
2024/02/26 13:53:09;;;;;;;;;;;;;;;;;;5138300;28;19946;-32
2024/02/26 13:55:36;;;;;;;;;;;;;;;;;;5138620;28;19907;-30
2024/02/26 13:58:02;;;;;;;;;;;;;;;;;;5138570;28;20323;-29
2024/02/26 14:00:28;;;;;;;;;;;;;;;;;;5138664;28;19908;-30
2024/02/26 14:02:54;;;;;;;;;;;;;;;;;;5138250;28;19922;-30
2024/02/26 14:05:20;;;;;;;;;;;;;;;;;;5138485;28;19912;-32
2024/02/26 14:07:46;;;;;;;;;;;;;;;;;;5138345;28;19915;-31
2024/02/26 14:10:12;;;;;;;;;;;;;;;;;;5138771;28;19919;-29
2024/02/26 14:12:38;;;;;;;;;;;;;;;;;;5138503;28;19908;-30
2024/02/26 14:15:05;;;;;;;;;;;;;;;;;;5137968;28;19966;-33
2024/02/26 14:17:31;;;;;;;;;;;;;;;;;;5138407;28;19911;-31
2024/02/26 14:19:57;;;;;;;;;;;;;;;;;;5138529;28;19907;-30
2024/02/26 14:22:23;;;;;;;;;;;;;;;;;;5138344;28;19915;-30
2024/02/26 14:24:50;;;;;;;;;;;;;;;;;;5119467;28;19911;-30
2024/02/26 14:27:17;;;;;;;;;;;;;;;;;;5137855;28;19915;-31
2024/02/26 14:29:43;;;;;;;;;;;;;;;;;;5137943;28;19911;-31
2024/02/26 14:32:09;;;;;;;;;;;;;;;;;;5138115;28;19952;-29
2024/02/26 14:34:35;;;;;;;;;;;;;;;;;;5139185;27;19911;-29
2024/02/26 14:37:01;;;;;;;;;;;;;;;;;;5141737;27;19994;-29
2024/02/26 14:39:26;;;;;;;;;;;;;;;;;;5141950;27;19908;-30
2024/02/26 14:41:52;;;;;;;;;;;;;;;;;;5142202;27;20381;-30
2024/02/26 14:44:18;;;;;;;;;;;;;;;;;;5141738;27;19912;-30
2024/02/26 14:46:44;;;;;;;;;;;;;;;;;;5141682;27;19942;-29
2024/02/26 14:49:11;;;;;;;;;;;;;;;;;;5141777;27;19971;-30
2024/02/26 14:51:37;;;;;;;;;;;;;;;;;;5141597;27;20058;-31
2024/02/26 14:54:03;;;;;;;;;;;;;;;;;;5141607;27;19927;-30
2024/02/26 14:56:29;;;;;;;;;;;;;;;;;;5141945;27;19973;-31
2024/02/26 14:58:55;;;;;;;;;;;;;;;;;;5141643;27;19914;-29
2024/02/26 15:01:21;;;;;;;;;;;;;;;;;;5141511;27;20334;-29
2024/02/26 15:03:47;;;;;;;;;;;;;;;;;;5141281;27;20018;-29
2024/02/26 15:06:13;;;;;;;;;;;;;;;;;;5141282;27;19915;-29
2024/02/26 15:08:39;;;;;;;;;;;;;;;;;;5141330;27;19907;-29
2024/02/26 15:11:06;;;;;;;;;;;;;;;;;;5141666;27;20422;-30
2024/02/26 15:13:32;;;;;;;;;;;;;;;;;;5141330;27;20000;-31
2024/02/26 15:15:58;;;;;;;;;;;;;;;;;;5141315;27;19911;-31
2024/02/26 15:18:24;;;;;;;;;;;;;;;;;;5141069;27;19908;-29
2024/02/26 15:20:50;;;;;;;;;;;;;;;;;;5141065;27;19908;-33
2024/02/26 15:23:17;;;;;;;;;;;;;;;;;;5141000;27;20006;-30
2024/02/26 15:25:43;;;;;;;;;;;;;;;;;;5140787;27;19915;-29
2024/02/26 15:28:14;;;;;;;;;;;;;;;;;;5141332;27;20314;-30
2024/02/26 15:30:39;;;;;;;;;;;;;;;;;;5140883;27;19914;-31
2024/02/26 15:33:05;;;;;;;;;;;;;;;;;;5141011;27;20369;-32
2024/02/26 15:35:31;;;;;;;;;;;;;;;;;;5140826;27;19908;-30
2024/02/26 15:37:57;;;;;;;;;;;;;;;;;;5140849;27;19913;-30
2024/02/26 15:40:23;;;;;;;;;;;;;;;;;;5140658;27;19957;-29
2024/02/26 15:42:49;;;;;;;;;;;;;;;;;;5140896;27;20346;-30
2024/02/26 15:45:16;;;;;;;;;;;;;;;;;;5140885;27;19960;-30
2024/02/26 15:47:42;;;;;;;;;;;;;;;;;;5139837;27;19908;-29
2024/02/26 15:50:08;;;;;;;;;;;;;;;;;;5140554;27;19915;-31
2024/02/26 15:52:34;;;;;;;;;;;;;;;;;;5140616;27;20285;-30
2024/02/26 15:55:00;;;;;;;;;;;;;;;;;;5140829;27;19964;-29
2024/02/26 15:57:26;;;;;;;;;;;;;;;;;;5140245;27;19903;-30
2024/02/26 15:59:53;;;;;;;;;;;;;;;;;;5140647;27;19908;-30
2024/02/26 16:02:20;;;;;;;;;;;;;;;;;;5140069;27;19904;-29
2024/02/26 16:04:46;;;;;;;;;;;;;;;;;;5139878;27;20289;-29
2024/02/26 16:07:12;;;;;;;;;;;;;;;;;;5121305;27;19956;-30
2024/02/26 16:09:38;;;;;;;;;;;;;;;;;;5140069;27;19904;-29
2024/02/26 16:12:04;;;;;;;;;;;;;;;;;;5140298;27;19947;-29
2024/02/26 16:14:30;;;;;;;;;;;;;;;;;;5140123;27;19908;-31
2024/02/26 16:16:56;;;;;;;;;;;;;;;;;;5140291;27;19914;-30
2024/02/26 16:19:22;;;;;;;;;;;;;;;;;;5140076;27;19956;-29
2024/02/26 16:21:48;;;;;;;;;;;;;;;;;;5140054;27;20009;-29
2024/02/26 16:24:14;;;;;;;;;;;;;;;;;;5139583;27;19956;-31
2024/02/26 16:26:40;;;;;;;;;;;;;;;;;;5139965;27;19961;-33
2024/02/26 16:29:06;;;;;;;;;;;;;;;;;;5139615;27;20320;-31
2024/02/26 16:31:32;;;;;;;;;;;;;;;;;;5139983;27;19907;-32
2024/02/26 16:33:58;;;;;;;;;;;;;;;;;;5139557;27;20281;-30
2024/02/26 16:36:24;;;;;;;;;;;;;;;;;;5139319;27;20243;-29
2024/02/26 16:38:53;;;;;;;;;;;;;;;;;;5139482;27;19903;-30